Clifton, New Jersey
Current Conditions -  °F | °C
As of 4:58 PM on Monday 26 Jan 2015 (Local Time) from KTEB Reporting Station
Light Snow Light Snow  
Wind Chill: 15°   Ceiling: 2000
Heat Index: 25°   Visibility: 4mi
Dew Point: 19°   Wind: 10mph
Humidity: 80%   Direction: 20°NNE
Pressure: 29.85"   Gusts: NA
Location:  40.87°N, 74.16°W
Report Text: KTEB 262158Z 02009KT 4SM -SNPL BR OVC020 M04/M07 A2985 RMK AO2 P0000
Loading
Personal Weather Stations






























Interactive Weather Map New forecast layout! Learn more

10-Day Weather Forecast

Advertisements
Track Severe Weather on mobile